Flight Track Log - Related Links

Times and Time Zones

All times are in EDT time to prevent confusion due to time zone crossing. See the NKS562 flight status page for this flight to view local times or setup timezone preferences in your user account.

Time Position Orientation Groundspeed Altitude Reporting Facility
EDT Latitude Longitude Course Direction KTS MPH feet Rate Location/Type
Tue 11:21:42 AM 36.0760 -115.1520 270° West 162 186 2,600  Level FlightAware ADS-B
Tue 11:22:12 AM 36.0770 -115.1780 273° West 158 182 3,900 2,267 Climbing FlightAware ADS-B
Tue 11:22:27 AM 36.0770 -115.1920 270° West 166 191 4,300 1,500 Climbing FlightAware ADS-B
Tue 11:22:52 AM 36.0770 -115.2170 270° West 190 219 4,900 1,200 Climbing FlightAware ADS-B
Tue 11:23:22 AM 36.0770 -115.2540 270° West 235 270 5,400 1,200 Climbing FlightAware ADS-B
Tue 11:23:32 AM 36.0800 -115.2670 286° West 245 282 5,700 2,640 Climbing FlightAware ADS-B
Tue 11:23:47 AM 36.0920 -115.2840 311° West 246 283 6,500 3,200 Climbing FlightAware ADS-B
Tue 11:24:02 AM 36.1070 -115.2910 339° North 242 278 7,300 2,914 Climbing FlightAware ADS-B
Tue 11:24:22 AM 36.1290 -115.2960 350° North 250 288 8,200 2,533 Climbing FlightAware ADS-B
Tue 11:24:47 AM 36.1570 -115.2820 22° Northeast 272 313 9,200 2,743 Climbing FlightAware ADS-B
Tue 11:24:57 AM 36.1660 -115.2690 49° Northeast 274 315 9,800 3,120 Climbing FlightAware ADS-B
Tue 11:25:12 AM 36.1750 -115.2500 60° Northeast 278 320 10,500 1,800 Climbing FlightAware ADS-B
Tue 11:25:57 AM 36.1960 -115.1750 71° East 333 383 11,600 1,500 Climbing FlightAware ADS-B
Tue 11:26:32 AM 36.1970 -115.1060 89° East 366 421 12,500 2,100 Climbing FlightAware ADS-B
Tue 11:27:17 AM 36.1980 -115.0080 89° East 383 441 14,400 2,333 Climbing FlightAware ADS-B
Tue 11:28:02 AM 36.1990 -114.9080 89° East 402 463 16,000 2,329 Climbing FlightAware ADS-B
Tue 11:28:42 AM 36.2000 -114.8160 89° East 406 467 17,700 2,475 Climbing FlightAware ADS-B
Tue 11:29:22 AM 36.2010 -114.7220 89° East 417 480 19,300 2,329 Climbing FlightAware ADS-B
Tue 11:30:07 AM 36.1990 -114.6140 91° East 425 489 21,000 2,047 Climbing FlightAware ADS-B
Tue 11:30:47 AM 36.1980 -114.5120 91° East 436 502 22,200 1,765 Climbing FlightAware ADS-B
Tue 11:31:32 AM 36.1960 -114.4020 91° East 449 517 23,500 1,765 Climbing FlightAware ADS-B
Tue 11:32:12 AM 36.1950 -114.2990 91° East 454 522 24,700 1,725 Climbing FlightAware ADS-B
Tue 11:32:52 AM 36.2000 -114.1950 87° East 460 529 25,800 1,694 Climbing FlightAware ADS-B
Tue 11:33:37 AM 36.2150 -114.0730 81° East 467 537 27,100 1,624 Climbing FlightAware ADS-B
Tue 11:34:17 AM 36.2270 -113.9680 82° East 472 543 28,100 1,553 Climbing FlightAware ADS-B
Tue 11:35:02 AM 36.2410 -113.8500 82° East 476 548 29,300 1,482 Climbing FlightAware ADS-B
Tue 11:35:42 AM 36.2530 -113.7440 82° East 480 552 30,200 1,425 Climbing FlightAware ADS-B
Tue 11:36:22 AM 36.2660 -113.6310 82° East 480 552 31,200 1,482 Climbing FlightAware ADS-B
Tue 11:37:07 AM 36.2810 -113.5060 81° East 480 552 32,300 1,412 Climbing FlightAware ADS-B
Tue 11:37:47 AM 36.2930 -113.3970 82° East 481 554 33,200 1,341 Climbing FlightAware ADS-B
Tue 11:38:32 AM 36.3060 -113.2780 82° East 479 551 34,200 1,341 Climbing FlightAware ADS-B
Tue 11:39:12 AM 36.3310 -113.1730 74° East 473 544 35,100 1,200 Climbing FlightAware ADS-B
Tue 11:39:57 AM 36.3740 -113.0620 64° Northeast 474 545 35,900 1,271 Climbing FlightAware ADS-B
Tue 11:40:37 AM 36.4080 -112.9670 66° East 466 536 36,900 776 Climbing FlightAware ADS-B
Tue 11:41:22 AM 36.4480 -112.8590 65° Northeast 462 532 37,000 71 Climbing FlightAware ADS-B
Tue 11:42:02 AM 36.4840 -112.7620 65° Northeast 462 532 37,000  Level FlightAware ADS-B
Tue 11:42:42 AM 36.5200 -112.6640 65° Northeast 465 535 37,000  Level FlightAware ADS-B
Tue 11:43:22 AM 36.5570 -112.5640 65° Northeast 469 540 37,000 71 Level FlightAware ADS-B
Tue 11:44:07 AM 36.5980 -112.4520 65° Northeast 472 543 37,100 60 Climbing FlightAware ADS-B
Tue 11:45:02 AM 36.6440 -112.3260 66° East 469 540 37,100  Level FlightAware ADS-B
Tue 11:45:42 AM 36.6750 -112.2430 65° Northeast 469 540 37,100  Level FlightAware ADS-B
Tue 11:46:22 AM 36.7060 -112.1590 65° Northeast 469 540 37,100  Level FlightAware ADS-B
Tue 11:47:12 AM 36.7450 -112.0550 65° Northeast 469 540 37,100  Level FlightAware ADS-B
Tue 11:47:52 AM 36.7760 -111.9710 65° Northeast 469 540 37,100  Level FlightAware ADS-B
Tue 11:48:32 AM 36.8080 -111.8880 64° Northeast 469 540 37,100  Level FlightAware ADS-B
Tue 11:49:12 AM 36.8390 -111.8040 65° Northeast 469 540 37,100  Level FlightAware ADS-B
Tue 11:49:52 AM 36.8700 -111.7210 65° Northeast 469 540 37,100  Level FlightAware ADS-B
Tue 11:50:42 AM 36.9090 -111.6160 65° Northeast 469 540 37,100  Level FlightAware ADS-B
Tue 11:51:22 AM 36.9400 -111.5330 65° Northeast 469 540 37,100  Level FlightAware ADS-B
Tue 11:52:02 AM 36.9710 -111.4490 65° Northeast 469 540 37,100  Level FlightAware ADS-B
Tue 11:52:42 AM 37.0020 -111.3650 65° Northeast 469 540 37,100  Level FlightAware ADS-B
Tue 11:53:22 AM 37.0340 -111.2820 64° Northeast 469 540 37,100  Level FlightAware ADS-B
Tue 11:54:02 AM 37.0650 -111.1980 65° Northeast 469 540 37,100 -83 Level FlightAware ADS-B
Tue 11:54:34 AM 37.1403 -110.9250 65° Northeast 464 534 37,000 -64 Descending Denver Center
Tue 11:55:36 AM 37.1908 -110.7769 67° East 465 535 37,000 48 Level Denver Center
Tue 11:56:38 AM 37.2425 -110.6278 66° East 467 537 37,100  Climbing Denver Center
Tue 11:57:40 AM 37.3042 -110.4483 67° East 468 539 37,000 -48 Descending Denver Center
Tue 11:58:42 AM 37.3547 -110.3003 67° East 463 533 37,000  Level Denver Center
Tue 11:59:44 AM 37.4075 -110.1428 67° East 464 534 37,000  Level Denver Center
Tue 12:00:46 PM 37.4564 -110.0008 67° East 463 533 37,000  Level Denver Center
Tue 12:01:48 PM 37.5128 -109.8331 67° East 465 535 37,000  Level Denver Center
Tue 12:02:50 PM 37.5603 -109.6875 68° East 468 539 37,000  Level Denver Center
Tue 12:03:52 PM 37.6167 -109.5169 67° East 471 542 37,000  Level Denver Center
Tue 12:04:54 PM 37.6661 -109.3703 67° East 474 545 37,000  Level Denver Center
Tue 12:05:56 PM 37.7228 -109.1964 68° East 479 551 37,000  Level Denver Center
Tue 12:06:58 PM 37.7708 -109.0486 68° East 475 547 37,000  Level Denver Center
Tue 12:08:00 PM 37.8217 -108.9017 66° East 476 548 37,000  Level Denver Center
Tue 12:09:02 PM 37.9006 -108.7458 57° Northeast 473 544 37,000  Level Denver Center
Tue 12:15:07 PM 38.3180 -107.8780 57° Northeast 475 547 37,000 -15 Level FlightAware ADS-B
Tue 12:15:52 PM 38.3670 -107.7740 59° Northeast 475 547 36,900  Descending FlightAware ADS-B
Tue 12:16:37 PM 38.4170 -107.6680 59° Northeast 475 547 37,000 71 Climbing FlightAware ADS-B
Tue 12:17:17 PM 38.4640 -107.5680 59° Northeast 475 547 37,000  Level FlightAware ADS-B
Tue 12:17:57 PM 38.5080 -107.4720 60° Northeast 471 542 37,000 -237 Level FlightAware ADS-B
Tue 12:18:33 PM 38.5516 -107.3730 61° Northeast 472 543 36,700 -701 Descending FlightAware ADS-B
Tue 12:19:14 PM 38.5955 -107.2750 60° Northeast 471 542 36,100 -532 Descending FlightAware ADS-B
Tue 12:19:52 PM 38.6290 -107.2000 60° Northeast 475 547 36,000 -538 Descending FlightAware ADS-B
Tue 12:20:32 PM 38.6750 -107.0960 60° Northeast 480 552 35,400 -900 Descending FlightAware ADS-B
Tue 12:21:12 PM 38.7180 -106.9990 60° Northeast 482 555 34,800 -947 Descending FlightAware ADS-B
Tue 12:22:07 PM 38.7810 -106.8570 60° Northeast 493 567 33,900 -1,120 Descending FlightAware ADS-B
Tue 12:22:27 PM 38.8081 -106.7950 61° Northeast 495 570 33,400 -1,200 Descending FlightAware ADS-B
Tue 12:22:57 PM 38.8420 -106.7180 61° Northeast 488 562 32,900 -968 Descending FlightAware ADS-B
Tue 12:23:29 PM 38.8777 -106.6390 60° Northeast 486 559 32,400 -943 Descending FlightAware ADS-B
Tue 12:24:07 PM 38.9216 -106.5440 59° Northeast 486 559 31,800 -1,043 Descending FlightAware ADS-B
Tue 12:24:38 PM 38.9556 -106.4700 59° Northeast 475 547 31,200 -1,429 Descending FlightAware ADS-B
Tue 12:25:10 PM 38.9901 -106.3930 60° Northeast 469 540 30,300 -1,688 Descending FlightAware ADS-B
Tue 12:25:42 PM 39.0210 -106.3260 59° Northeast 467 537 29,400 -2,000 Descending FlightAware ADS-B
Tue 12:26:01 PM 39.0458 -106.2690 61° Northeast 469 540 28,600 -2,160 Descending FlightAware ADS-B
Tue 12:26:32 PM 39.0780 -106.1980 60° Northeast 457 526 27,600 -1,967 Descending FlightAware ADS-B
Tue 12:27:02 PM 39.1096 -106.1280 60° Northeast 444 511 26,600 -1,831 Descending FlightAware ADS-B
Tue 12:27:31 PM 39.1390 -106.0620 60° Northeast 438 504 25,800 -1,831 Descending FlightAware ADS-B
Tue 12:28:01 PM 39.1693 -105.9930 60° Northeast 443 510 24,800 -1,935 Descending FlightAware ADS-B
Tue 12:28:33 PM 39.2015 -105.9210 60° Northeast 431 496 23,800 -1,839 Descending FlightAware ADS-B
Tue 12:29:03 PM 39.2312 -105.8550 60° Northeast 427 491 22,900 -1,900 Descending FlightAware ADS-B
Tue 12:29:33 PM 39.2605 -105.7890 60° Northeast 427 491 21,900 -1,900 Descending FlightAware ADS-B
Tue 12:30:03 PM 39.2899 -105.7220 60° Northeast 419 482 21,000 -1,672 Descending FlightAware ADS-B
Tue 12:30:34 PM 39.3187 -105.6570 60° Northeast 412 474 20,200 -1,770 Descending FlightAware ADS-B
Tue 12:31:04 PM 39.3472 -105.5930 60° Northeast 409 471 19,200 -1,778 Descending FlightAware ADS-B
Tue 12:31:28 PM 39.3695 -105.5410 61° Northeast 399 459 18,600 -1,412 Descending FlightAware ADS-B
Tue 12:31:38 PM 39.3782 -105.5210 61° Northeast 394 453 18,400 -1,286 Descending FlightAware ADS-B
Tue 12:31:42 PM 39.3805 -105.5130 70° East 391 450 18,300 -667 Descending FlightAware ADS-B
Tue 12:31:47 PM 39.3830 -105.5020 74° East 391 450 18,300 -600 Level FlightAware ADS-B
Tue 12:31:52 PM 39.3846 -105.4910 79° East 389 448 18,200 -480 Descending FlightAware ADS-B
Tue 12:32:12 PM 39.3860 -105.4450 88° East 370 426 18,100 -960 Descending FlightAware ADS-B
Tue 12:32:42 PM 39.3868 -105.3810 89° East 349 402 17,400 -1,680 Descending FlightAware ADS-B
Tue 12:33:02 PM 39.3874 -105.3400 89° East 342 394 16,700 -2,333 Descending FlightAware ADS-B
Tue 12:33:36 PM 39.3887 -105.2700 89° East 337 388 15,300 -1,846 Descending FlightAware ADS-B
Tue 12:34:07 PM 39.3897 -105.2100 89° East 313 360 14,700 -885 Descending FlightAware ADS-B
Tue 12:34:37 PM 39.3911 -105.1580 88° East 292 336 14,400 -750 Descending FlightAware ADS-B
Tue 12:34:55 PM 39.3921 -105.1250 88° East 286 329 14,100 -1,286 Descending FlightAware ADS-B
Tue 12:35:19 PM 39.3935 -105.0850 87° East 288 331 13,500 -1,132 Descending FlightAware ADS-B
Tue 12:35:48 PM 39.3956 -105.0350 87° East 283 326 13,100 -407 Descending FlightAware ADS-B
Tue 12:36:18 PM 39.3982 -104.9850 86° East 279 321 13,100  Level FlightAware ADS-B
Tue 12:36:49 PM 39.4011 -104.9340 86° East 281 323 13,100  Level FlightAware ADS-B
Tue 12:37:09 PM 39.4030 -104.9010 86° East 282 325 13,100 -240 Level FlightAware ADS-B
Tue 12:37:14 PM 39.4040 -104.8930 81° East 285 328 13,000 -706 Descending FlightAware ADS-B
Tue 12:37:26 PM 39.4107 -104.8730 67° East 288 331 12,900 -600 Descending FlightAware ADS-B
Tue 12:37:34 PM 39.4157 -104.8620 60° Northeast 286 329 12,800 -1,105 Descending FlightAware ADS-B
Tue 12:38:04 PM 39.4366 -104.8170 59° Northeast 287 330 12,200 -1,082 Descending FlightAware ADS-B
Tue 12:38:35 PM 39.4573 -104.7730 59° Northeast 282 325 11,700 -1,082 Descending FlightAware ADS-B
Tue 12:39:05 PM 39.4780 -104.7310 57° Northeast 279 321 11,100 -900 Descending FlightAware ADS-B
Tue 12:39:15 PM 39.4866 -104.7180 49° Northeast 280 322 11,100  Level FlightAware ADS-B
Tue 12:39:26 PM 39.4983 -104.7070 36° Northeast 279 321 11,100 -545 Level FlightAware ADS-B
Tue 12:39:59 PM 39.5349 -104.6790 31° Northeast 277 319 10,700 -783 Descending FlightAware ADS-B
Tue 12:40:12 PM 39.5492 -104.6700 26° Northeast 273 314 10,500 -1,304 Descending FlightAware ADS-B
Tue 12:40:22 PM 39.5621 -104.6650 17° North 271 312 10,200 -1,286 Descending FlightAware ADS-B
Tue 12:40:40 PM 39.5840 -104.6630 North 270 311 9,900 -1,235 Descending FlightAware ADS-B
Tue 12:40:56 PM 39.6040 -104.6630 360° North 272 313 9,500 -1,105 Descending FlightAware ADS-B
Tue 12:41:18 PM 39.6312 -104.6630 360° North 263 303 9,200 -789 Descending FlightAware ADS-B
Tue 12:41:34 PM 39.6512 -104.6630 360° North 258 297 9,000 -938 Descending FlightAware ADS-B
Tue 12:41:50 PM 39.6701 -104.6620 North 253 291 8,700 -1,313 Descending FlightAware ADS-B
Tue 12:42:06 PM 39.6876 -104.6620 360° North 244 281 8,300 -1,500 Descending FlightAware ADS-B
Tue 12:42:22 PM 39.7054 -104.6620 360° North 230 265 7,900 -1,273 Descending FlightAware ADS-B
Tue 12:42:39 PM 39.7227 -104.6620 360° North 210 242 7,600 -909 Descending FlightAware ADS-B
Tue 12:42:55 PM 39.7373 -104.6620 360° North 192 221 7,400 -968 Descending FlightAware ADS-B
Tue 12:43:10 PM 39.7501 -104.6620 360° North 177 204 7,100 -1,385 Descending FlightAware ADS-B
Tue 12:43:21 PM 39.7589 -104.6610 North 172 198 6,800 -938 Descending FlightAware ADS-B
Tue 12:43:42 PM 39.7745 -104.6610 360° North 158 182 6,600 -600 Descending FlightAware ADS-B
Tue 12:43:51 PM 39.7807 -104.6610 360° North 156 180 6,500 -900 Descending FlightAware ADS-B
Tue 12:44:02 PM 39.7887 -104.6610 360° North 153 176 6,300 -923 Descending FlightAware ADS-B
Tue 12:44:17 PM 39.7996 -104.6610 360° North 157 181 6,100 -857 Descending FlightAware ADS-B
Tue 12:44:30 PM 39.8082 -104.6610 360° North 153 176 5,900 -900 Descending FlightAware ADS-B
Tue 12:44:37 PM 39.8132 -104.6610 360° North 151 174 5,800 -545 Descending FlightAware ADS-B
Tue 12:44:41 PM 39.8163 -104.6610 360° North 150 173 5,800 -750 Level FlightAware ADS-B
Tue 12:44:45 PM 39.8191 -104.6610 360° North 148 170 5,700 -1,500 Descending FlightAware ADS-B
Tue 12:53:00 PM 39.8500 -104.6667 10° North  Level FlightAware Approximate
Tue 12:54:00 PM 39.8617 -104.6732 10° North  Level Estimated
Tue 12:55:00 PM 39.8617 -104.6732 10° North  Level Estimated

Login

Don't have an account? Register now (free) for customized features, flight alerts, and more!